createdAt,value
2018-09-19T00:00:12.051Z,12.10
2018-09-19T00:02:41.724Z,12.10
2018-09-19T00:05:10.785Z,12.03
2018-09-19T00:07:39.863Z,13.23
2018-09-19T00:10:09.014Z,13.60
2018-09-19T00:12:38.280Z,12.80
2018-09-19T00:15:07.344Z,9.20
2018-09-19T00:17:37.066Z,12.00
2018-09-19T00:20:06.308Z,9.87
2018-09-19T00:22:35.283Z,13.17
2018-09-19T00:25:04.349Z,15.27
2018-09-19T00:27:33.463Z,13.00
2018-09-19T00:30:02.601Z,14.47
2018-09-19T00:32:31.641Z,8.23
2018-09-19T00:35:00.676Z,16.70
2018-09-19T00:37:29.591Z,11.53
2018-09-19T00:39:58.742Z,13.80
2018-09-19T00:42:27.808Z,11.23
2018-09-19T00:44:56.852Z,16.73
2018-09-19T00:47:25.844Z,13.27
2018-09-19T00:49:54.939Z,8.90
2018-09-19T00:52:23.957Z,14.30
2018-09-19T00:54:54.158Z,12.73
2018-09-19T00:57:23.210Z,11.03
2018-09-19T00:59:52.252Z,14.77
2018-09-19T01:02:21.241Z,10.80
2018-09-19T01:04:50.366Z,11.97
2018-09-19T01:07:19.409Z,13.90
2018-09-19T01:09:48.391Z,10.70
2018-09-19T01:12:17.469Z,10.10
2018-09-19T01:14:46.482Z,8.77
2018-09-19T01:17:15.586Z,13.07
2018-09-19T01:19:44.673Z,19.07
2018-09-19T01:22:13.746Z,14.70
2018-09-19T01:24:42.784Z,17.10
2018-09-19T01:27:11.921Z,10.23
2018-09-19T01:29:40.961Z,11.50
2018-09-19T01:32:09.983Z,13.73
2018-09-19T01:34:39.034Z,11.83
2018-09-19T01:37:08.107Z,12.90
2018-09-19T01:39:37.163Z,23.30
2018-09-19T01:42:06.421Z,14.43
2018-09-19T01:44:35.587Z,13.70
2018-09-19T01:47:04.583Z,17.07
2018-09-19T01:49:33.658Z,13.03
2018-09-19T01:52:02.722Z,16.20
2018-09-19T01:54:31.785Z,12.07
2018-09-19T01:57:00.864Z,14.70
2018-09-19T01:59:29.922Z,12.17
2018-09-19T02:01:59.436Z,13.63
2018-09-19T02:04:28.458Z,13.67
2018-09-19T02:06:57.692Z,14.70
2018-09-19T02:09:27.137Z,16.30
2018-09-19T02:11:56.087Z,11.73
2018-09-19T02:14:25.182Z,15.83
2018-09-19T02:16:54.247Z,10.40
2018-09-19T02:19:23.274Z,16.53
2018-09-19T02:21:52.245Z,16.70
2018-09-19T02:24:21.295Z,12.33
2018-09-19T02:26:50.370Z,11.70
2018-09-19T02:29:19.387Z,14.73
2018-09-19T02:31:48.511Z,20.33
2018-09-19T02:34:17.687Z,14.37
2018-09-19T02:36:46.724Z,14.53
2018-09-19T02:39:15.909Z,13.87
2018-09-19T02:41:45.074Z,12.77
2018-09-19T02:44:14.300Z,22.97
2018-09-19T02:46:43.381Z,12.07
2018-09-19T02:49:12.780Z,17.40
2018-09-19T02:51:41.903Z,13.13
2018-09-19T02:54:10.924Z,18.07
2018-09-19T02:56:41.042Z,12.60
2018-09-19T02:59:09.985Z,18.77
2018-09-19T03:01:39.132Z,19.23
2018-09-19T03:04:08.353Z,20.20
2018-09-19T03:06:37.378Z,14.00
2018-09-19T03:09:07.419Z,17.53
2018-09-19T03:11:36.410Z,16.23
2018-09-19T03:14:05.503Z,12.83
2018-09-19T03:16:34.637Z,14.27
2018-09-19T03:19:03.685Z,12.80
2018-09-19T03:21:33.109Z,11.37
2018-09-19T03:24:02.534Z,14.40
2018-09-19T03:26:31.576Z,17.43
2018-09-19T03:29:00.521Z,18.33
2018-09-19T03:31:29.605Z,19.67
2018-09-19T03:33:58.715Z,15.13
2018-09-19T03:36:27.810Z,16.77
2018-09-19T03:38:56.927Z,21.70
2018-09-19T03:41:25.979Z,18.10
2018-09-19T03:43:54.907Z,12.47
2018-09-19T03:46:23.970Z,22.20
2018-09-19T03:48:53.139Z,17.40
2018-09-19T03:51:22.213Z,17.80
2018-09-19T03:53:51.267Z,16.37
2018-09-19T03:56:20.425Z,16.37
2018-09-19T03:58:49.487Z,15.87
2018-09-19T04:01:18.542Z,13.90
2018-09-19T04:03:47.720Z,13.80
2018-09-19T04:06:24.076Z,16.67
2018-09-19T04:08:53.089Z,17.63
2018-09-19T04:11:22.094Z,21.73
2018-09-19T04:13:51.262Z,20.37
2018-09-19T04:16:20.589Z,19.77
2018-09-19T04:18:49.622Z,16.80
2018-09-19T04:21:18.702Z,23.80
2018-09-19T04:23:47.951Z,20.40
2018-09-19T04:26:16.899Z,17.10
2018-09-19T04:28:46.027Z,20.57
2018-09-19T04:31:16.131Z,19.57
2018-09-19T04:33:46.344Z,18.47
2018-09-19T04:36:15.615Z,19.47
2018-09-19T04:38:44.571Z,19.47
2018-09-19T04:41:13.664Z,22.93
2018-09-19T04:43:42.686Z,18.20
2018-09-19T04:46:12.799Z,18.33
2018-09-19T04:48:41.788Z,19.73
2018-09-19T04:51:10.850Z,15.90
2018-09-19T04:53:39.871Z,22.20
2018-09-19T04:56:08.841Z,20.00
2018-09-19T04:58:37.927Z,21.60
2018-09-19T05:01:07.073Z,18.53
2018-09-19T05:03:36.186Z,21.80
2018-09-19T05:06:05.344Z,23.33
2018-09-19T05:08:34.387Z,18.00
2018-09-19T05:11:03.447Z,22.37
2018-09-19T05:13:32.593Z,20.50
2018-09-19T05:16:03.122Z,17.87
2018-09-19T05:18:32.174Z,18.57
2018-09-19T05:21:01.233Z,17.63
2018-09-19T05:23:30.348Z,26.03
2018-09-19T05:25:59.399Z,16.43
2018-09-19T05:28:29.260Z,22.20
2018-09-19T05:30:59.637Z,17.20
2018-09-19T05:33:29.661Z,21.00
2018-09-19T05:35:58.689Z,23.57
2018-09-19T05:38:27.816Z,21.93
2018-09-19T05:40:56.909Z,16.83
2018-09-19T05:43:25.946Z,19.33
2018-09-19T05:45:54.999Z,19.57
2018-09-19T05:48:24.048Z,17.60
2018-09-19T05:50:53.042Z,17.57
2018-09-19T05:53:22.038Z,18.17
2018-09-19T05:55:51.112Z,17.50
2018-09-19T05:58:20.209Z,20.20
2018-09-19T06:00:50.150Z,14.93
2018-09-19T06:03:19.101Z,17.03
2018-09-19T06:05:48.404Z,16.27
2018-09-19T06:08:17.383Z,14.93
2018-09-19T06:10:46.600Z,17.90
2018-09-19T06:13:15.868Z,15.20
2018-09-19T06:15:44.952Z,13.37
2018-09-19T06:18:13.934Z,15.53
2018-09-19T06:20:43.027Z,15.63
2018-09-19T06:23:12.277Z,13.20
2018-09-19T06:25:42.031Z,14.03
2018-09-19T06:28:11.088Z,12.80
2018-09-19T06:30:41.572Z,11.70
2018-09-19T06:33:11.933Z,12.40
2018-09-19T06:35:41.899Z,11.50
2018-09-19T06:38:11.077Z,19.40
2018-09-19T06:40:40.320Z,9.67
2018-09-19T06:43:10.211Z,14.17
2018-09-19T06:45:39.346Z,13.20
2018-09-19T06:48:08.386Z,10.27
2018-09-19T06:50:37.657Z,11.40
2018-09-19T06:53:07.543Z,13.70
2018-09-19T06:55:36.797Z,13.20
2018-09-19T06:58:06.439Z,10.53
2018-09-19T07:00:35.498Z,8.90
2018-09-19T07:03:04.750Z,14.47
2018-09-19T07:05:33.982Z,9.90
2018-09-19T07:08:03.073Z,11.13
2018-09-19T07:10:32.249Z,10.70
2018-09-19T07:13:01.883Z,8.70
2018-09-19T07:15:30.911Z,9.20
2018-09-19T07:18:00.022Z,13.00
2018-09-19T07:20:29.133Z,9.97
2018-09-19T07:22:58.219Z,10.90
2018-09-19T07:25:27.827Z,9.80
2018-09-19T07:27:56.960Z,9.60
2018-09-19T07:30:26.089Z,10.83
2018-09-19T07:32:55.343Z,11.40
2018-09-19T07:35:24.859Z,9.03
2018-09-19T07:37:54.291Z,8.30
2018-09-19T07:40:23.310Z,8.07
2018-09-19T07:42:52.408Z,9.00
2018-09-19T07:45:21.497Z,10.50
2018-09-19T07:47:50.579Z,8.73
2018-09-19T07:50:19.610Z,9.40
2018-09-19T07:52:48.807Z,8.53
2018-09-19T07:55:17.956Z,11.80
2018-09-19T07:57:47.027Z,11.73
2018-09-19T08:00:16.072Z,10.83
2018-09-19T08:02:45.216Z,8.80
2018-09-19T08:05:14.235Z,10.00
2018-09-19T08:07:43.234Z,7.27
2018-09-19T08:10:12.256Z,10.30
2018-09-19T08:12:41.269Z,8.47
2018-09-19T08:15:10.466Z,10.23
2018-09-19T08:17:39.545Z,6.33
2018-09-19T08:20:08.620Z,9.43
2018-09-19T08:22:37.688Z,7.40
2018-09-19T08:25:08.015Z,12.50
2018-09-19T08:27:37.371Z,6.70
2018-09-19T08:30:06.474Z,9.13
2018-09-19T08:32:35.536Z,6.10
2018-09-19T08:35:04.725Z,6.90
2018-09-19T08:37:33.928Z,6.17
2018-09-19T08:40:03.046Z,5.30
2018-09-19T08:42:32.332Z,6.23
2018-09-19T08:45:01.372Z,11.03
2018-09-19T08:47:30.390Z,8.17
2018-09-19T08:49:59.302Z,5.60
2018-09-19T08:52:28.467Z,8.10
2018-09-19T08:54:57.438Z,6.83
2018-09-19T08:57:26.458Z,11.27
2018-09-19T08:59:55.980Z,7.60
2018-09-19T09:02:25.068Z,6.60
2018-09-19T09:04:54.133Z,8.20
2018-09-19T09:07:23.264Z,5.10
2018-09-19T09:09:52.403Z,7.40
2018-09-19T09:12:21.622Z,6.20
2018-09-19T09:14:50.710Z,7.13
2018-09-19T09:17:19.757Z,5.27
2018-09-19T09:19:48.801Z,5.33
2018-09-19T09:22:18.517Z,5.73
2018-09-19T09:24:47.506Z,9.10
2018-09-19T09:27:16.723Z,6.17
2018-09-19T09:29:45.782Z,5.50
2018-09-19T09:34:43.107Z,4.07
2018-09-19T09:37:12.186Z,3.80
2018-09-19T09:39:41.415Z,4.90
2018-09-19T09:42:10.825Z,7.83
2018-09-19T09:44:39.982Z,6.43
2018-09-19T09:47:08.964Z,5.30
2018-09-19T09:49:38.100Z,4.83
2018-09-19T09:52:08.018Z,3.60
2018-09-19T09:54:37.351Z,3.00
2018-09-19T09:57:06.407Z,5.40
2018-09-19T09:59:35.630Z,5.80
2018-09-19T10:02:04.891Z,5.77
2018-09-19T10:04:34.037Z,5.23
2018-09-19T10:07:03.192Z,5.20
2018-09-19T10:09:32.269Z,4.93
2018-09-19T10:12:01.297Z,3.83
2018-09-19T10:14:30.395Z,5.73
2018-09-19T10:17:01.524Z,5.80
2018-09-19T10:19:30.742Z,11.83
2018-09-19T10:22:00.247Z,4.70
2018-09-19T10:24:29.384Z,4.80
2018-09-19T10:26:58.463Z,4.83
2018-09-19T10:29:27.586Z,6.73
2018-09-19T10:31:56.610Z,7.30
2018-09-19T10:34:25.693Z,4.30
2018-09-19T10:36:54.895Z,2.80
2018-09-19T10:39:24.117Z,8.30
2018-09-19T10:41:54.300Z,5.60
2018-09-19T10:44:23.423Z,4.30
2018-09-19T10:46:52.569Z,4.27
2018-09-19T10:49:22.310Z,5.40
2018-09-19T10:51:51.333Z,4.83
2018-09-19T10:54:20.433Z,5.70
2018-09-19T10:56:49.775Z,6.13
2018-09-19T10:59:18.919Z,7.60
2018-09-19T11:01:47.938Z,3.10
2018-09-19T11:04:17.025Z,3.80
2018-09-19T11:06:45.970Z,9.37
2018-09-19T11:09:15.534Z,9.23
2018-09-19T11:11:44.632Z,5.47
2018-09-19T11:14:14.707Z,7.13
2018-09-19T11:16:43.822Z,4.40
2018-09-19T11:19:12.935Z,4.83
2018-09-19T11:21:42.704Z,10.10
2018-09-19T11:24:11.886Z,9.80
2018-09-19T11:26:41.149Z,4.87
2018-09-19T11:29:10.685Z,7.33
2018-09-19T11:31:39.873Z,6.90
2018-09-19T11:34:08.887Z,5.40
2018-09-19T11:36:38.029Z,6.47
2018-09-19T11:39:10.000Z,6.40
2018-09-19T11:41:39.329Z,6.33
2018-09-19T11:44:08.755Z,4.10
2018-09-19T11:46:37.883Z,5.33
2018-09-19T11:49:09.878Z,6.20
2018-09-19T11:51:38.970Z,5.93
2018-09-19T11:54:08.000Z,7.47
2018-09-19T11:56:37.248Z,4.00
2018-09-19T11:59:06.531Z,3.43
2018-09-19T12:01:35.699Z,7.20
2018-09-19T12:04:04.757Z,4.90
2018-09-19T12:06:33.837Z,5.33
2018-09-19T12:09:02.964Z,4.83
2018-09-19T12:11:32.094Z,5.37
2018-09-19T12:14:01.159Z,5.37
2018-09-19T12:16:30.236Z,3.77
2018-09-19T12:18:59.307Z,4.60
2018-09-19T12:21:28.454Z,3.87
2018-09-19T12:23:57.564Z,4.30
2018-09-19T12:26:27.950Z,4.87
2018-09-19T12:28:56.933Z,5.47
2018-09-19T12:31:26.062Z,8.43
2018-09-19T12:33:55.491Z,4.40
2018-09-19T12:36:25.866Z,4.70
2018-09-19T12:38:55.572Z,4.13
2018-09-19T12:41:24.730Z,5.43
2018-09-19T12:43:54.086Z,9.50
2018-09-19T12:46:24.713Z,6.07
2018-09-19T12:48:54.583Z,5.93
2018-09-19T12:51:23.571Z,4.80
2018-09-19T12:53:52.594Z,6.80
2018-09-19T12:56:22.815Z,5.87
2018-09-19T12:58:51.879Z,7.13
2018-09-19T13:01:20.935Z,9.70
2018-09-19T13:03:50.023Z,7.43
2018-09-19T13:06:19.085Z,8.00
2018-09-19T13:08:48.195Z,10.70
2018-09-19T13:11:17.326Z,6.33
2018-09-19T13:13:47.915Z,5.30
2018-09-19T13:16:17.891Z,11.20
2018-09-19T13:18:47.078Z,6.83
2018-09-19T13:21:16.199Z,7.20
2018-09-19T13:23:45.347Z,6.97
2018-09-19T13:26:14.444Z,6.90
2018-09-19T13:28:44.384Z,7.70
2018-09-19T13:31:15.099Z,6.00
2018-09-19T13:33:44.167Z,5.30
2018-09-19T13:36:13.705Z,5.30
2018-09-19T13:38:42.832Z,7.90
2018-09-19T13:41:12.146Z,7.20
2018-09-19T13:43:41.262Z,3.70
2018-09-19T13:46:10.812Z,5.63
2018-09-19T13:48:43.066Z,8.07
2018-09-19T13:51:16.055Z,5.30
2018-09-19T13:53:45.182Z,10.73
2018-09-19T13:56:14.145Z,5.73
2018-09-19T13:58:43.249Z,7.50
2018-09-19T14:01:12.258Z,5.53
2018-09-19T14:03:41.227Z,6.93
2018-09-19T14:06:13.091Z,10.53
2018-09-19T14:08:42.292Z,5.30
2018-09-19T14:11:11.403Z,6.17
2018-09-19T14:13:41.882Z,8.47
2018-09-19T14:16:11.142Z,5.83
2018-09-19T14:18:40.297Z,7.67
2018-09-19T14:21:09.295Z,7.63
2018-09-19T14:23:38.424Z,3.30
2018-09-19T14:26:07.541Z,6.00
2018-09-19T14:28:37.372Z,5.80
2018-09-19T14:31:06.446Z,5.33
2018-09-19T14:33:35.421Z,5.57
2018-09-19T14:36:05.002Z,7.87
2018-09-19T14:38:34.169Z,8.23
2018-09-19T14:41:06.214Z,3.90
2018-09-19T14:43:35.395Z,6.00
2018-09-19T14:46:04.502Z,8.97
2018-09-19T14:48:33.574Z,6.87
2018-09-19T14:51:03.516Z,5.40
2018-09-19T14:53:32.728Z,4.13
2018-09-19T14:56:01.987Z,9.93
2018-09-19T14:58:30.954Z,14.13
2018-09-19T15:00:59.944Z,9.20
2018-09-19T15:03:28.857Z,9.37
2018-09-19T15:05:59.451Z,9.00
2018-09-19T15:08:28.826Z,8.87
2018-09-19T15:10:57.905Z,6.10
2018-09-19T15:13:27.029Z,4.70
2018-09-19T15:15:56.257Z,10.10
2018-09-19T15:18:25.403Z,3.70
2018-09-19T15:20:54.573Z,8.70
2018-09-19T15:23:23.726Z,5.33
2018-09-19T15:25:53.831Z,5.90
2018-09-19T15:28:22.979Z,6.30
2018-09-19T15:30:51.883Z,4.90
2018-09-19T15:33:21.089Z,5.80
2018-09-19T15:35:50.812Z,6.77
2018-09-19T15:38:19.911Z,6.83
2018-09-19T15:40:48.922Z,9.33
2018-09-19T15:43:17.887Z,8.57
2018-09-19T15:45:47.763Z,7.20
2018-09-19T15:48:16.861Z,7.13
2018-09-19T15:50:45.871Z,9.37
2018-09-19T15:53:14.983Z,4.80
2018-09-19T15:55:43.975Z,5.77
2018-09-19T15:58:13.001Z,6.67
2018-09-19T16:00:42.088Z,6.20
2018-09-19T16:03:11.207Z,9.50
2018-09-19T16:05:40.293Z,6.90
2018-09-19T16:08:09.445Z,5.83
2018-09-19T16:10:38.556Z,4.40
2018-09-19T16:13:07.671Z,8.43
2018-09-19T16:15:36.817Z,5.83
2018-09-19T16:18:05.730Z,7.40
2018-09-19T16:20:34.900Z,7.53
2018-09-19T16:23:04.039Z,6.30
2018-09-19T16:25:33.114Z,9.27
2018-09-19T16:28:02.262Z,5.40
2018-09-19T16:30:31.366Z,8.03
2018-09-19T16:33:00.468Z,5.20
2018-09-19T16:35:29.675Z,9.43
2018-09-19T16:37:58.881Z,10.80
2018-09-19T16:40:28.251Z,5.00
2018-09-19T16:42:57.601Z,7.13
2018-09-19T16:45:26.682Z,6.90
2018-09-19T16:47:55.772Z,5.77
2018-09-19T16:50:25.169Z,8.80
2018-09-19T16:52:56.626Z,5.80
2018-09-19T16:55:25.617Z,13.17
2018-09-19T16:57:54.536Z,5.67
2018-09-19T17:00:23.607Z,5.50
2018-09-19T17:02:52.734Z,7.90
2018-09-19T17:05:21.795Z,6.37
2018-09-19T17:07:50.947Z,7.17
2018-09-19T17:10:21.305Z,6.17
2018-09-19T17:12:50.374Z,11.53
2018-09-19T17:15:19.604Z,9.07
2018-09-19T17:17:48.698Z,8.30
2018-09-19T17:20:17.714Z,5.13
2018-09-19T17:22:47.638Z,6.23
2018-09-19T17:25:16.663Z,6.73
2018-09-19T17:27:45.804Z,9.50
2018-09-19T17:30:14.936Z,6.30
2018-09-19T17:32:44.023Z,5.43
2018-09-19T17:35:13.060Z,6.90
2018-09-19T17:37:42.062Z,8.63
2018-09-19T17:40:11.010Z,4.83
2018-09-19T17:42:40.155Z,8.10
2018-09-19T17:45:09.767Z,7.10
2018-09-19T17:47:38.783Z,7.30
2018-09-19T17:50:08.044Z,6.27
2018-09-19T17:52:37.154Z,7.00
2018-09-19T17:55:06.184Z,7.23
2018-09-19T17:57:35.351Z,7.57
2018-09-19T18:00:05.190Z,4.53
2018-09-19T18:02:34.094Z,7.93
2018-09-19T18:05:03.202Z,9.37
2018-09-19T18:07:32.311Z,8.60
2018-09-19T18:10:01.569Z,8.13
2018-09-19T18:12:30.649Z,9.50
2018-09-19T18:14:59.789Z,6.10
2018-09-19T18:17:28.705Z,10.17
2018-09-19T18:19:57.719Z,11.47
2018-09-19T18:22:26.906Z,9.30
2018-09-19T18:24:56.098Z,3.70
2018-09-19T18:27:25.210Z,8.80
2018-09-19T18:29:54.315Z,7.00
2018-09-19T18:32:23.487Z,6.27
2018-09-19T18:34:52.499Z,8.20
2018-09-19T18:37:21.671Z,6.50
2018-09-19T18:39:51.718Z,11.40
2018-09-19T18:42:20.749Z,5.10
2018-09-19T18:44:49.877Z,5.70
2018-09-19T18:47:20.046Z,4.80
2018-09-19T18:49:49.202Z,4.90
2018-09-19T18:52:18.141Z,7.40
2018-09-19T18:54:47.115Z,8.80
2018-09-19T18:57:16.061Z,13.80
2018-09-19T18:59:45.255Z,19.67
2018-09-19T19:02:15.762Z,19.33
2018-09-19T19:04:44.840Z,22.17
2018-09-19T19:07:13.845Z,20.33
2018-09-19T19:09:43.043Z,21.37
2018-09-19T19:12:12.229Z,24.70
2018-09-19T19:14:41.206Z,28.20
2018-09-19T19:17:10.201Z,25.83
2018-09-19T19:19:39.159Z,26.70
2018-09-19T19:22:08.348Z,28.03
2018-09-19T19:24:37.401Z,29.53
2018-09-19T19:27:06.536Z,28.43
2018-09-19T19:29:35.818Z,27.90
2018-09-19T19:32:07.949Z,32.10
2018-09-19T19:34:37.040Z,28.50
2018-09-19T19:37:06.142Z,29.80
2018-09-19T19:39:35.127Z,29.70
2018-09-19T19:42:04.082Z,26.80
2018-09-19T19:44:33.131Z,27.90
2018-09-19T19:47:07.853Z,29.10
2018-09-19T19:49:37.495Z,33.87
2018-09-19T19:52:06.734Z,31.93
2018-09-19T19:54:35.899Z,29.43
2018-09-19T19:57:04.925Z,28.37
2018-09-19T19:59:34.006Z,27.17
2018-09-19T20:02:02.974Z,25.00
2018-09-19T20:04:32.126Z,25.17
2018-09-19T20:07:01.990Z,25.90
2018-09-19T20:09:31.087Z,22.77
2018-09-19T20:12:00.158Z,24.00
2018-09-19T20:14:29.224Z,22.93
2018-09-19T20:16:58.318Z,22.43
2018-09-19T20:19:27.747Z,23.40
2018-09-19T20:21:56.829Z,23.10
2018-09-19T20:24:25.943Z,24.83
2018-09-19T20:26:55.023Z,23.27
2018-09-19T20:29:23.987Z,21.63
2018-09-19T20:31:52.997Z,19.60
2018-09-19T20:34:23.321Z,23.30
2018-09-19T20:36:52.386Z,20.17
2018-09-19T20:39:21.556Z,24.97
2018-09-19T20:41:50.683Z,20.00
2018-09-19T20:44:19.789Z,22.87
2018-09-19T20:46:48.843Z,20.10
2018-09-19T20:49:17.896Z,21.70
2018-09-19T20:51:46.994Z,17.97
2018-09-19T20:54:16.100Z,16.63
2018-09-19T20:56:45.256Z,16.13
2018-09-19T20:59:15.008Z,18.73
2018-09-19T21:01:44.877Z,18.63
2018-09-19T21:04:13.829Z,16.60
2018-09-19T21:06:42.909Z,16.57
2018-09-19T21:09:12.007Z,14.70
2018-09-19T21:11:41.103Z,19.67
2018-09-19T21:14:10.069Z,20.37
2018-09-19T21:16:39.038Z,16.63
2018-09-19T21:19:08.130Z,13.67
2018-09-19T21:21:37.129Z,16.63
2018-09-19T21:24:06.222Z,15.93
2018-09-19T21:26:35.238Z,16.90
2018-09-19T21:29:04.339Z,13.73
2018-09-19T21:31:33.526Z,15.80
2018-09-19T21:34:02.596Z,16.10
2018-09-19T21:36:32.361Z,11.57
2018-09-19T21:39:01.513Z,13.70
2018-09-19T21:41:30.671Z,11.83
2018-09-19T21:44:00.699Z,11.77
2018-09-19T21:46:29.790Z,14.27
2018-09-19T21:48:58.708Z,16.33
2018-09-19T21:51:27.823Z,14.40
2018-09-19T21:53:56.912Z,16.20
2018-09-19T21:56:26.126Z,17.00
2018-09-19T21:58:56.231Z,17.60
2018-09-19T22:01:30.756Z,14.23
2018-09-19T22:03:59.935Z,13.30
2018-09-19T22:06:29.002Z,14.27
2018-09-19T22:08:58.140Z,15.30
2018-09-19T22:11:27.177Z,14.23
2018-09-19T22:13:56.114Z,12.07
2018-09-19T22:16:25.248Z,13.40
2018-09-19T22:18:54.690Z,17.43
2018-09-19T22:21:23.719Z,14.30
2018-09-19T22:23:52.963Z,16.60
2018-09-19T22:26:22.065Z,14.30
2018-09-19T22:28:51.766Z,18.77
2018-09-19T22:31:21.434Z,17.73
2018-09-19T22:33:50.541Z,14.70
2018-09-19T22:36:19.789Z,12.83
2018-09-19T22:38:48.851Z,12.33
2018-09-19T22:41:18.627Z,10.87
2018-09-19T22:43:48.184Z,16.83
2018-09-19T22:46:17.177Z,12.93
2018-09-19T22:48:46.646Z,15.43
2018-09-19T22:51:15.684Z,17.87
2018-09-19T22:53:44.918Z,14.40
2018-09-19T22:56:13.972Z,13.00
2018-09-19T22:58:43.047Z,15.60
2018-09-19T23:01:12.141Z,11.43
2018-09-19T23:03:41.208Z,17.13
2018-09-19T23:06:10.328Z,11.67
2018-09-19T23:08:40.656Z,16.53
2018-09-19T23:11:10.021Z,14.30
2018-09-19T23:13:39.283Z,13.03
2018-09-19T23:16:08.406Z,12.80
2018-09-19T23:18:37.436Z,14.70
2018-09-19T23:21:06.543Z,14.17
2018-09-19T23:23:35.955Z,12.47
2018-09-19T23:26:05.205Z,14.43
2018-09-19T23:28:34.290Z,12.30
2018-09-19T23:31:03.333Z,12.77
2018-09-19T23:33:33.316Z,12.70
2018-09-19T23:36:02.423Z,11.23
2018-09-19T23:38:31.485Z,15.90
2018-09-19T23:41:01.687Z,13.43
2018-09-19T23:43:31.562Z,10.83
2018-09-19T23:46:00.678Z,15.93
2018-09-19T23:48:30.990Z,10.03
2018-09-19T23:51:00.008Z,11.10
2018-09-19T23:53:29.149Z,13.80
2018-09-19T23:55:59.235Z,11.20
2018-09-19T23:58:28.254Z,13.10
